Terminal Aerodrome Forecast
Issued by NWS Upton, NY

Home | Current Version | Previous Version | Text Only | Print | Product List | Glossary On
Versions: 1 2 3 4 5 6 7 8 9 10 11 12 13 14 15 16 17 18 19 20 21 22 23 24 25 26 27 28 29 30 31 32 33 34 35 36 37 38 39 40 41 42 43 44 45 46 47 48 49 50
000
FTUS41 KOKX 220521
TAFISP
TAF
KISP 220521Z 2206/2306 05019G25KT 4SM -RA BR OVC008 WS020/09045KT
     FM220800 04019G27KT 2SM -RA BR OVC004
     FM221000 02012KT 2SM -RA BR OVC004
      TEMPO 2211/2213 1SM -RA BR
     FM221400 35016G23KT 4SM -DZ BR OVC006
     FM221700 32015G23KT P6SM OVC015
     FM221900 28015G25KT P6SM SCT025 BKN040
     FM230100 29016G30KT P6SM BKN040=

USA.gov is the U.S. government's official web portal to all federal, state and local government web resources and services.